São Domingos Airstrip

BR-0032 · 戈亚斯州, 巴西

METAR BR-0032 · São Domingos Airstrip

26 二月 21:00 LT
24m
使用的METAR站距离机场324 km。
罗盘
风向 的 风向 130° São Domingos Airstrip 10/28
风: 7 kt, 3 beaufort

4 kt

5 kt
改变
0 ft 1.000 2.000 3.000 4.000 5.000
Cloud Cloud
FEW 4.500
METAR SBBR 270000Z 13007KT 9999 FEW045 24/13 Q1018

METAR São Domingos Airstrip - BR-0032

São Domingos Airstrip是,巴西中的小机场。 该机场位于纬度-13,41210和经度-46,29830。 该机场有一条跑道: 10/28. 这个机场没有ICAO代码,我们使用BR-0032作为参考。 机场在Brasilia FIR中。

该航空气象观测是针对巴西利亚-儒塞利诺·库比契克总统国际机场在2024年2月26日 21:00, 当地时间进行的。

机场观察

风向为130°,速度为7 kt。

可见度为10 km 或者更多。

有几云在4.500 ft的高度。 没有观察到天花板。

温度和风寒是24 °C。 露点为13 °C,相对湿度为50%。 海平面上的气压为1018 hPa (QNH)。

白天

今天,太阳从06:06升起,在18:29降落。 这适用于São Domingos Airstrip,世界夏令时可能有所不同。 当地时间与世界标准时间之间的时差为-3 小时。 当前,没有夏令时有效。

公司介绍

我们没有关于这个机场的公司信息。

体会

到Vliegles.nl去找飞行课程,跳伞和其他飞行体验。 浏览页面,了解São Domingos Airstrip附近所有可用的活动。 你也可以使用搜索功能来寻找你所在地附近的特定飞行课程、跳伞或其他飞行体验。

跑道

Id 标题 侧风 逆风 侧风 %
10/28 080°-260° 5 kt 4 kt 77 %

逆风成分最大的方向会被突出显示,并用于横风计算。 这并不一定意味着这个方向在使用。

乌云

4.500 ft FEW 几云

温度 & 天气

温度 24 °C
露点 13 °C
相对湿度 50%
Kp-index 1 (0-9)

白天

日出
06:11 (8:47)
中午
12:24
日落
18:37

小工具

你想在你的网站上有一个关于São Domingos Airstrip的当前航空天气(METAR)的小部件吗?

显示HTML代码
?>